sensor_id;sensor_type;location;lat;lon;timestamp;P1;durP1;ratioP1;P2;durP2;ratioP2
57395;SDS011;43222;52.912;6.940;2023-04-06T00:01:06;10.60;;;5.55;;
57395;SDS011;43222;52.912;6.940;2023-04-06T00:03:32;9.68;;;5.70;;
57395;SDS011;43222;52.912;6.940;2023-04-06T00:05:58;9.02;;;5.60;;
57395;SDS011;43222;52.912;6.940;2023-04-06T00:08:25;9.57;;;5.47;;
57395;SDS011;43222;52.912;6.940;2023-04-06T00:10:51;11.68;;;5.55;;
57395;SDS011;43222;52.912;6.940;2023-04-06T00:13:17;10.05;;;6.07;;
57395;SDS011;43222;52.912;6.940;2023-04-06T00:15:43;10.25;;;5.47;;
57395;SDS011;43222;52.912;6.940;2023-04-06T00:18:11;9.45;;;5.15;;
57395;SDS011;43222;52.912;6.940;2023-04-06T00:20:37;11.07;;;5.70;;
57395;SDS011;43222;52.912;6.940;2023-04-06T00:23:03;11.07;;;5.53;;
57395;SDS011;43222;52.912;6.940;2023-04-06T00:25:29;9.23;;;5.60;;
57395;SDS011;43222;52.912;6.940;2023-04-06T00:27:55;7.63;;;5.40;;
57395;SDS011;43222;52.912;6.940;2023-04-06T00:30:21;9.77;;;5.90;;
57395;SDS011;43222;52.912;6.940;2023-04-06T00:32:48;10.88;;;5.50;;
57395;SDS011;43222;52.912;6.940;2023-04-06T00:35:14;9.00;;;5.65;;
57395;SDS011;43222;52.912;6.940;2023-04-06T00:37:40;9.35;;;5.75;;
57395;SDS011;43222;52.912;6.940;2023-04-06T00:40:07;10.40;;;5.53;;
57395;SDS011;43222;52.912;6.940;2023-04-06T00:42:33;11.48;;;5.65;;
57395;SDS011;43222;52.912;6.940;2023-04-06T00:44:59;9.27;;;5.63;;
57395;SDS011;43222;52.912;6.940;2023-04-06T00:47:26;8.10;;;5.50;;
57395;SDS011;43222;52.912;6.940;2023-04-06T00:49:53;9.85;;;6.00;;
57395;SDS011;43222;52.912;6.940;2023-04-06T00:52:20;9.90;;;5.72;;
57395;SDS011;43222;52.912;6.940;2023-04-06T00:54:46;10.10;;;5.50;;
57395;SDS011;43222;52.912;6.940;2023-04-06T00:57:12;11.88;;;6.40;;
57395;SDS011;43222;52.912;6.940;2023-04-06T00:59:38;9.88;;;5.75;;
57395;SDS011;43222;52.912;6.940;2023-04-06T01:02:05;9.30;;;5.70;;
57395;SDS011;43222;52.912;6.940;2023-04-06T01:04:31;8.77;;;5.88;;
57395;SDS011;43222;52.912;6.940;2023-04-06T01:06:58;9.80;;;6.25;;
57395;SDS011;43222;52.912;6.940;2023-04-06T01:09:24;9.75;;;6.38;;
57395;SDS011;43222;52.912;6.940;2023-04-06T01:11:50;10.73;;;5.75;;
57395;SDS011;43222;52.912;6.940;2023-04-06T01:14:16;13.15;;;6.05;;
57395;SDS011;43222;52.912;6.940;2023-04-06T01:16:42;11.45;;;5.88;;
57395;SDS011;43222;52.912;6.940;2023-04-06T01:19:11;9.52;;;5.75;;
57395;SDS011;43222;52.912;6.940;2023-04-06T01:21:38;10.00;;;5.80;;
57395;SDS011;43222;52.912;6.940;2023-04-06T01:24:05;10.38;;;5.75;;
57395;SDS011;43222;52.912;6.940;2023-04-06T01:26:31;9.98;;;6.00;;
57395;SDS011;43222;52.912;6.940;2023-04-06T01:28:58;9.38;;;5.72;;
57395;SDS011;43222;52.912;6.940;2023-04-06T01:31:24;14.15;;;6.40;;
57395;SDS011;43222;52.912;6.940;2023-04-06T01:33:51;12.27;;;6.28;;
57395;SDS011;43222;52.912;6.940;2023-04-06T01:36:17;10.02;;;6.30;;
57395;SDS011;43222;52.912;6.940;2023-04-06T01:38:43;11.95;;;6.50;;
57395;SDS011;43222;52.912;6.940;2023-04-06T01:41:09;10.45;;;6.32;;
57395;SDS011;43222;52.912;6.940;2023-04-06T01:43:35;10.13;;;6.50;;
57395;SDS011;43222;52.912;6.940;2023-04-06T01:46:01;11.95;;;7.45;;
57395;SDS011;43222;52.912;6.940;2023-04-06T01:48:27;10.73;;;6.78;;
57395;SDS011;43222;52.912;6.940;2023-04-06T01:50:54;10.98;;;6.07;;
57395;SDS011;43222;52.912;6.940;2023-04-06T01:53:20;10.48;;;6.30;;
57395;SDS011;43222;52.912;6.940;2023-04-06T01:55:46;9.32;;;6.00;;
57395;SDS011;43222;52.912;6.940;2023-04-06T01:58:12;11.38;;;6.10;;
57395;SDS011;43222;52.912;6.940;2023-04-06T02:00:39;10.10;;;6.10;;
57395;SDS011;43222;52.912;6.940;2023-04-06T02:03:05;12.88;;;6.05;;
57395;SDS011;43222;52.912;6.940;2023-04-06T02:05:31;10.82;;;5.70;;
57395;SDS011;43222;52.912;6.940;2023-04-06T02:10:28;10.00;;;6.10;;
57395;SDS011;43222;52.912;6.940;2023-04-06T02:12:54;9.45;;;6.18;;
57395;SDS011;43222;52.912;6.940;2023-04-06T02:15:20;9.10;;;6.18;;
57395;SDS011;43222;52.912;6.940;2023-04-06T02:17:46;10.13;;;5.95;;
57395;SDS011;43222;52.912;6.940;2023-04-06T02:20:12;10.40;;;6.00;;
57395;SDS011;43222;52.912;6.940;2023-04-06T02:22:39;11.27;;;6.15;;
57395;SDS011;43222;52.912;6.940;2023-04-06T02:25:05;9.90;;;5.97;;
57395;SDS011;43222;52.912;6.940;2023-04-06T02:27:31;9.95;;;5.82;;
57395;SDS011;43222;52.912;6.940;2023-04-06T02:29:57;11.43;;;5.75;;
57395;SDS011;43222;52.912;6.940;2023-04-06T02:32:24;10.15;;;5.82;;
57395;SDS011;43222;52.912;6.940;2023-04-06T02:34:50;9.77;;;5.72;;
57395;SDS011;43222;52.912;6.940;2023-04-06T02:37:16;12.95;;;5.80;;
57395;SDS011;43222;52.912;6.940;2023-04-06T02:39:42;13.00;;;6.25;;
57395;SDS011;43222;52.912;6.940;2023-04-06T02:42:08;11.88;;;6.47;;
57395;SDS011;43222;52.912;6.940;2023-04-06T02:44:34;12.27;;;6.40;;
57395;SDS011;43222;52.912;6.940;2023-04-06T02:47:00;12.65;;;6.28;;
57395;SDS011;43222;52.912;6.940;2023-04-06T02:49:26;8.80;;;6.18;;
57395;SDS011;43222;52.912;6.940;2023-04-06T02:51:52;9.23;;;6.47;;
57395;SDS011;43222;52.912;6.940;2023-04-06T02:54:18;10.27;;;6.50;;
57395;SDS011;43222;52.912;6.940;2023-04-06T02:56:44;10.07;;;6.43;;
57395;SDS011;43222;52.912;6.940;2023-04-06T02:59:11;9.77;;;7.00;;
57395;SDS011;43222;52.912;6.940;2023-04-06T03:01:37;10.50;;;6.70;;
57395;SDS011;43222;52.912;6.940;2023-04-06T03:04:03;11.10;;;6.97;;
57395;SDS011;43222;52.912;6.940;2023-04-06T03:06:29;14.15;;;7.55;;
57395;SDS011;43222;52.912;6.940;2023-04-06T03:08:55;9.43;;;6.90;;
57395;SDS011;43222;52.912;6.940;2023-04-06T03:11:21;10.55;;;7.13;;
57395;SDS011;43222;52.912;6.940;2023-04-06T03:13:47;10.93;;;7.50;;
57395;SDS011;43222;52.912;6.940;2023-04-06T03:16:13;11.52;;;7.20;;
57395;SDS011;43222;52.912;6.940;2023-04-06T03:18:39;13.18;;;7.20;;
57395;SDS011;43222;52.912;6.940;2023-04-06T03:21:06;12.05;;;7.10;;
57395;SDS011;43222;52.912;6.940;2023-04-06T03:23:32;9.48;;;7.47;;
57395;SDS011;43222;52.912;6.940;2023-04-06T03:25:58;10.30;;;7.63;;
57395;SDS011;43222;52.912;6.940;2023-04-06T03:28:24;10.02;;;7.10;;
57395;SDS011;43222;52.912;6.940;2023-04-06T03:30:50;13.35;;;7.68;;
57395;SDS011;43222;52.912;6.940;2023-04-06T03:33:16;11.57;;;7.32;;
57395;SDS011;43222;52.912;6.940;2023-04-06T03:35:42;10.27;;;7.13;;
57395;SDS011;43222;52.912;6.940;2023-04-06T03:38:08;12.00;;;7.45;;
57395;SDS011;43222;52.912;6.940;2023-04-06T03:40:34;14.15;;;7.82;;
57395;SDS011;43222;52.912;6.940;2023-04-06T03:43:01;14.23;;;7.68;;
57395;SDS011;43222;52.912;6.940;2023-04-06T03:45:27;12.88;;;8.23;;
57395;SDS011;43222;52.912;6.940;2023-04-06T03:47:53;11.57;;;7.72;;
57395;SDS011;43222;52.912;6.940;2023-04-06T03:50:22;12.63;;;7.38;;
57395;SDS011;43222;52.912;6.940;2023-04-06T03:52:48;12.65;;;7.63;;
57395;SDS011;43222;52.912;6.940;2023-04-06T03:55:14;10.50;;;8.13;;
57395;SDS011;43222;52.912;6.940;2023-04-06T03:57:41;11.68;;;8.38;;
57395;SDS011;43222;52.912;6.940;2023-04-06T04:00:07;14.38;;;8.90;;
57395;SDS011;43222;52.912;6.940;2023-04-06T04:02:34;12.27;;;8.63;;
57395;SDS011;43222;52.912;6.940;2023-04-06T04:05:00;15.80;;;8.70;;
57395;SDS011;43222;52.912;6.940;2023-04-06T04:07:26;12.10;;;8.05;;
57395;SDS011;43222;52.912;6.940;2023-04-06T04:09:52;13.30;;;8.30;;
57395;SDS011;43222;52.912;6.940;2023-04-06T04:12:18;12.52;;;8.52;;
57395;SDS011;43222;52.912;6.940;2023-04-06T04:14:44;12.48;;;8.48;;
57395;SDS011;43222;52.912;6.940;2023-04-06T04:17:11;12.82;;;8.95;;
57395;SDS011;43222;52.912;6.940;2023-04-06T04:19:37;16.08;;;9.30;;
57395;SDS011;43222;52.912;6.940;2023-04-06T04:22:03;16.58;;;9.40;;
57395;SDS011;43222;52.912;6.940;2023-04-06T04:24:32;13.45;;;8.75;;
57395;SDS011;43222;52.912;6.940;2023-04-06T04:26:59;14.70;;;9.50;;
57395;SDS011;43222;52.912;6.940;2023-04-06T04:29:28;11.60;;;9.18;;
57395;SDS011;43222;52.912;6.940;2023-04-06T04:31:54;12.40;;;8.93;;
57395;SDS011;43222;52.912;6.940;2023-04-06T04:34:20;13.05;;;9.48;;
57395;SDS011;43222;52.912;6.940;2023-04-06T04:36:48;14.43;;;9.50;;
57395;SDS011;43222;52.912;6.940;2023-04-06T04:39:15;12.82;;;9.52;;
57395;SDS011;43222;52.912;6.940;2023-04-06T04:41:41;17.13;;;9.00;;
57395;SDS011;43222;52.912;6.940;2023-04-06T04:44:07;13.68;;;9.48;;
57395;SDS011;43222;52.912;6.940;2023-04-06T04:46:33;12.10;;;8.60;;
57395;SDS011;43222;52.912;6.940;2023-04-06T04:48:59;13.02;;;9.50;;
57395;SDS011;43222;52.912;6.940;2023-04-06T04:51:33;11.93;;;9.07;;
57395;SDS011;43222;52.912;6.940;2023-04-06T04:53:59;14.68;;;9.65;;
57395;SDS011;43222;52.912;6.940;2023-04-06T04:56:25;14.13;;;9.77;;
57395;SDS011;43222;52.912;6.940;2023-04-06T04:58:52;13.63;;;10.05;;
57395;SDS011;43222;52.912;6.940;2023-04-06T05:01:18;14.95;;;9.82;;
57395;SDS011;43222;52.912;6.940;2023-04-06T05:03:44;15.32;;;9.02;;
57395;SDS011;43222;52.912;6.940;2023-04-06T05:06:10;14.93;;;9.73;;
57395;SDS011;43222;52.912;6.940;2023-04-06T05:08:36;14.50;;;9.18;;
57395;SDS011;43222;52.912;6.940;2023-04-06T05:11:02;14.18;;;9.45;;
57395;SDS011;43222;52.912;6.940;2023-04-06T05:13:29;12.98;;;9.98;;
57395;SDS011;43222;52.912;6.940;2023-04-06T05:15:56;14.15;;;9.90;;
57395;SDS011;43222;52.912;6.940;2023-04-06T05:18:22;13.82;;;10.43;;
57395;SDS011;43222;52.912;6.940;2023-04-06T05:20:48;14.02;;;9.93;;
57395;SDS011;43222;52.912;6.940;2023-04-06T05:23:16;16.40;;;10.25;;
57395;SDS011;43222;52.912;6.940;2023-04-06T05:25:42;14.02;;;9.85;;
57395;SDS011;43222;52.912;6.940;2023-04-06T05:28:08;15.55;;;10.38;;
57395;SDS011;43222;52.912;6.940;2023-04-06T05:30:35;20.80;;;11.02;;
57395;SDS011;43222;52.912;6.940;2023-04-06T05:33:01;14.57;;;10.40;;
57395;SDS011;43222;52.912;6.940;2023-04-06T05:35:27;16.55;;;10.40;;
57395;SDS011;43222;52.912;6.940;2023-04-06T05:37:53;15.82;;;10.00;;
57395;SDS011;43222;52.912;6.940;2023-04-06T05:40:19;14.77;;;10.43;;
57395;SDS011;43222;52.912;6.940;2023-04-06T05:42:45;12.73;;;9.90;;
57395;SDS011;43222;52.912;6.940;2023-04-06T05:45:12;15.18;;;9.52;;
57395;SDS011;43222;52.912;6.940;2023-04-06T05:47:45;12.98;;;8.90;;
57395;SDS011;43222;52.912;6.940;2023-04-06T05:50:12;12.57;;;9.93;;
57395;SDS011;43222;52.912;6.940;2023-04-06T05:52:38;13.90;;;9.07;;
57395;SDS011;43222;52.912;6.940;2023-04-06T05:55:07;13.98;;;9.02;;
57395;SDS011;43222;52.912;6.940;2023-04-06T05:57:34;12.63;;;9.00;;
57395;SDS011;43222;52.912;6.940;2023-04-06T06:00:00;13.05;;;8.55;;
57395;SDS011;43222;52.912;6.940;2023-04-06T06:02:26;13.57;;;9.52;;
57395;SDS011;43222;52.912;6.940;2023-04-06T06:04:52;12.38;;;8.52;;
57395;SDS011;43222;52.912;6.940;2023-04-06T06:07:18;12.07;;;9.10;;
57395;SDS011;43222;52.912;6.940;2023-04-06T06:09:44;13.43;;;8.60;;
57395;SDS011;43222;52.912;6.940;2023-04-06T06:12:10;11.75;;;8.75;;
57395;SDS011;43222;52.912;6.940;2023-04-06T06:14:36;10.77;;;8.30;;
57395;SDS011;43222;52.912;6.940;2023-04-06T06:17:02;11.98;;;8.38;;
57395;SDS011;43222;52.912;6.940;2023-04-06T06:19:28;14.52;;;8.40;;
57395;SDS011;43222;52.912;6.940;2023-04-06T06:21:55;11.57;;;8.00;;
57395;SDS011;43222;52.912;6.940;2023-04-06T06:24:23;12.43;;;8.55;;
57395;SDS011;43222;52.912;6.940;2023-04-06T06:26:49;12.88;;;8.70;;
57395;SDS011;43222;52.912;6.940;2023-04-06T06:29:16;12.70;;;8.63;;
57395;SDS011;43222;52.912;6.940;2023-04-06T06:31:42;11.60;;;8.60;;
57395;SDS011;43222;52.912;6.940;2023-04-06T06:34:08;12.32;;;8.02;;
57395;SDS011;43222;52.912;6.940;2023-04-06T06:36:35;10.20;;;8.32;;
57395;SDS011;43222;52.912;6.940;2023-04-06T06:39:01;13.40;;;8.30;;
57395;SDS011;43222;52.912;6.940;2023-04-06T06:41:28;10.90;;;7.82;;
57395;SDS011;43222;52.912;6.940;2023-04-06T06:43:54;12.25;;;7.78;;
57395;SDS011;43222;52.912;6.940;2023-04-06T06:46:20;14.38;;;8.70;;
57395;SDS011;43222;52.912;6.940;2023-04-06T06:48:46;14.05;;;8.15;;
57395;SDS011;43222;52.912;6.940;2023-04-06T06:51:12;11.88;;;8.00;;
57395;SDS011;43222;52.912;6.940;2023-04-06T06:53:39;11.60;;;7.93;;
57395;SDS011;43222;52.912;6.940;2023-04-06T06:56:05;12.10;;;8.40;;
57395;SDS011;43222;52.912;6.940;2023-04-06T06:58:31;11.55;;;8.30;;
57395;SDS011;43222;52.912;6.940;2023-04-06T07:00:57;10.57;;;7.68;;
57395;SDS011;43222;52.912;6.940;2023-04-06T07:03:24;11.35;;;8.32;;
57395;SDS011;43222;52.912;6.940;2023-04-06T07:05:50;11.07;;;8.18;;
57395;SDS011;43222;52.912;6.940;2023-04-06T07:08:20;12.20;;;8.70;;
57395;SDS011;43222;52.912;6.940;2023-04-06T07:10:46;11.63;;;8.68;;
57395;SDS011;43222;52.912;6.940;2023-04-06T07:13:12;10.98;;;8.40;;
57395;SDS011;43222;52.912;6.940;2023-04-06T07:15:43;12.88;;;8.50;;
57395;SDS011;43222;52.912;6.940;2023-04-06T07:18:09;10.88;;;8.20;;
57395;SDS011;43222;52.912;6.940;2023-04-06T07:20:35;14.00;;;8.38;;
57395;SDS011;43222;52.912;6.940;2023-04-06T07:23:01;12.10;;;8.38;;
57395;SDS011;43222;52.912;6.940;2023-04-06T07:25:27;11.18;;;8.98;;
57395;SDS011;43222;52.912;6.940;2023-04-06T07:27:53;10.75;;;8.00;;
57395;SDS011;43222;52.912;6.940;2023-04-06T07:30:19;15.88;;;8.88;;
57395;SDS011;43222;52.912;6.940;2023-04-06T07:32:46;11.57;;;8.35;;
57395;SDS011;43222;52.912;6.940;2023-04-06T07:35:13;15.02;;;8.90;;
57395;SDS011;43222;52.912;6.940;2023-04-06T07:37:39;11.85;;;8.48;;
57395;SDS011;43222;52.912;6.940;2023-04-06T07:40:05;10.52;;;8.60;;
57395;SDS011;43222;52.912;6.940;2023-04-06T07:42:31;11.38;;;8.70;;
57395;SDS011;43222;52.912;6.940;2023-04-06T07:44:58;11.30;;;8.85;;
57395;SDS011;43222;52.912;6.940;2023-04-06T07:47:24;11.98;;;9.35;;
57395;SDS011;43222;52.912;6.940;2023-04-06T07:49:50;11.10;;;8.77;;
57395;SDS011;43222;52.912;6.940;2023-04-06T07:52:16;12.57;;;8.65;;
57395;SDS011;43222;52.912;6.940;2023-04-06T07:54:42;12.85;;;9.13;;
57395;SDS011;43222;52.912;6.940;2023-04-06T07:57:09;11.55;;;9.00;;
57395;SDS011;43222;52.912;6.940;2023-04-06T07:59:35;12.65;;;9.35;;
57395;SDS011;43222;52.912;6.940;2023-04-06T08:02:01;11.70;;;9.20;;
57395;SDS011;43222;52.912;6.940;2023-04-06T08:04:27;14.23;;;9.05;;
57395;SDS011;43222;52.912;6.940;2023-04-06T08:06:53;13.77;;;9.30;;
57395;SDS011;43222;52.912;6.940;2023-04-06T08:09:19;12.77;;;9.27;;
57395;SDS011;43222;52.912;6.940;2023-04-06T08:11:45;13.80;;;9.07;;
57395;SDS011;43222;52.912;6.940;2023-04-06T08:14:12;12.57;;;8.85;;
57395;SDS011;43222;52.912;6.940;2023-04-06T08:16:38;13.27;;;9.38;;
57395;SDS011;43222;52.912;6.940;2023-04-06T08:19:04;15.65;;;10.15;;
57395;SDS011;43222;52.912;6.940;2023-04-06T08:21:32;14.02;;;10.07;;
57395;SDS011;43222;52.912;6.940;2023-04-06T08:23:58;14.85;;;9.43;;
57395;SDS011;43222;52.912;6.940;2023-04-06T08:26:24;12.45;;;9.50;;
57395;SDS011;43222;52.912;6.940;2023-04-06T08:28:51;10.90;;;9.38;;
57395;SDS011;43222;52.912;6.940;2023-04-06T08:31:17;13.57;;;9.80;;
57395;SDS011;43222;52.912;6.940;2023-04-06T08:33:43;15.43;;;10.27;;
57395;SDS011;43222;52.912;6.940;2023-04-06T08:38:35;12.85;;;10.02;;
57395;SDS011;43222;52.912;6.940;2023-04-06T08:41:08;13.60;;;10.20;;
57395;SDS011;43222;52.912;6.940;2023-04-06T08:46:07;14.13;;;10.32;;
57395;SDS011;43222;52.912;6.940;2023-04-06T08:48:35;10.93;;;9.30;;
57395;SDS011;43222;52.912;6.940;2023-04-06T08:51:02;14.60;;;9.90;;
57395;SDS011;43222;52.912;6.940;2023-04-06T08:53:28;14.57;;;10.32;;
57395;SDS011;43222;52.912;6.940;2023-04-06T08:55:54;15.90;;;10.00;;
57395;SDS011;43222;52.912;6.940;2023-04-06T08:58:21;12.73;;;9.75;;
57395;SDS011;43222;52.912;6.940;2023-04-06T09:00:48;12.77;;;9.95;;
57395;SDS011;43222;52.912;6.940;2023-04-06T09:03:15;13.77;;;10.13;;
57395;SDS011;43222;52.912;6.940;2023-04-06T09:05:42;15.00;;;10.48;;
57395;SDS011;43222;52.912;6.940;2023-04-06T09:08:08;13.05;;;9.82;;
57395;SDS011;43222;52.912;6.940;2023-04-06T09:10:35;18.10;;;10.18;;
57395;SDS011;43222;52.912;6.940;2023-04-06T09:13:04;14.75;;;9.65;;
57395;SDS011;43222;52.912;6.940;2023-04-06T09:15:31;14.80;;;10.25;;
57395;SDS011;43222;52.912;6.940;2023-04-06T09:17:57;13.38;;;9.80;;
57395;SDS011;43222;52.912;6.940;2023-04-06T09:20:23;13.80;;;9.82;;
57395;SDS011;43222;52.912;6.940;2023-04-06T09:22:53;14.23;;;9.88;;
57395;SDS011;43222;52.912;6.940;2023-04-06T09:25:23;13.90;;;9.93;;
57395;SDS011;43222;52.912;6.940;2023-04-06T09:27:58;12.82;;;9.70;;
57395;SDS011;43222;52.912;6.940;2023-04-06T09:30:25;16.55;;;10.20;;
57395;SDS011;43222;52.912;6.940;2023-04-06T09:32:52;13.98;;;10.82;;
57395;SDS011;43222;52.912;6.940;2023-04-06T09:35:19;15.15;;;9.88;;
57395;SDS011;43222;52.912;6.940;2023-04-06T09:37:46;14.27;;;10.18;;
57395;SDS011;43222;52.912;6.940;2023-04-06T09:40:12;13.32;;;10.70;;
57395;SDS011;43222;52.912;6.940;2023-04-06T09:42:42;15.57;;;10.27;;
57395;SDS011;43222;52.912;6.940;2023-04-06T09:45:08;18.98;;;10.73;;
57395;SDS011;43222;52.912;6.940;2023-04-06T09:47:35;15.50;;;10.45;;
57395;SDS011;43222;52.912;6.940;2023-04-06T09:50:02;15.73;;;10.38;;
57395;SDS011;43222;52.912;6.940;2023-04-06T09:52:32;13.10;;;10.90;;
57395;SDS011;43222;52.912;6.940;2023-04-06T09:55:00;16.37;;;11.83;;
57395;SDS011;43222;52.912;6.940;2023-04-06T09:57:32;20.13;;;11.65;;
57395;SDS011;43222;52.912;6.940;2023-04-06T10:04:56;20.90;;;13.23;;
57395;SDS011;43222;52.912;6.940;2023-04-06T10:07:24;17.65;;;11.57;;
57395;SDS011;43222;52.912;6.940;2023-04-06T10:09:51;17.25;;;12.50;;
57395;SDS011;43222;52.912;6.940;2023-04-06T10:12:19;21.80;;;14.25;;
57395;SDS011;43222;52.912;6.940;2023-04-06T10:14:45;17.38;;;12.70;;
57395;SDS011;43222;52.912;6.940;2023-04-06T10:17:11;17.83;;;12.80;;
57395;SDS011;43222;52.912;6.940;2023-04-06T10:22:03;19.05;;;13.98;;
57395;SDS011;43222;52.912;6.940;2023-04-06T10:24:30;18.38;;;14.02;;
57395;SDS011;43222;52.912;6.940;2023-04-06T10:27:02;18.55;;;14.32;;
57395;SDS011;43222;52.912;6.940;2023-04-06T10:29:41;19.27;;;14.02;;
57395;SDS011;43222;52.912;6.940;2023-04-06T10:32:08;23.65;;;14.45;;
57395;SDS011;43222;52.912;6.940;2023-04-06T10:34:34;22.45;;;15.65;;
57395;SDS011;43222;52.912;6.940;2023-04-06T10:37:10;20.55;;;15.68;;
57395;SDS011;43222;52.912;6.940;2023-04-06T10:39:36;23.25;;;16.35;;
57395;SDS011;43222;52.912;6.940;2023-04-06T10:42:10;21.55;;;16.50;;
57395;SDS011;43222;52.912;6.940;2023-04-06T10:44:41;22.38;;;16.10;;
57395;SDS011;43222;52.912;6.940;2023-04-06T10:47:14;20.80;;;17.42;;
57395;SDS011;43222;52.912;6.940;2023-04-06T10:49:42;21.40;;;15.35;;
57395;SDS011;43222;52.912;6.940;2023-04-06T10:52:08;21.05;;;16.75;;
57395;SDS011;43222;52.912;6.940;2023-04-06T10:54:34;21.17;;;17.17;;
57395;SDS011;43222;52.912;6.940;2023-04-06T10:57:05;24.45;;;17.55;;
57395;SDS011;43222;52.912;6.940;2023-04-06T10:59:31;22.80;;;16.70;;
57395;SDS011;43222;52.912;6.940;2023-04-06T11:01:57;27.48;;;19.25;;
57395;SDS011;43222;52.912;6.940;2023-04-06T11:04:24;27.15;;;18.10;;
57395;SDS011;43222;52.912;6.940;2023-04-06T11:06:50;26.00;;;18.85;;
57395;SDS011;43222;52.912;6.940;2023-04-06T11:09:23;25.83;;;18.98;;
57395;SDS011;43222;52.912;6.940;2023-04-06T11:11:51;27.00;;;19.15;;
57395;SDS011;43222;52.912;6.940;2023-04-06T11:14:17;27.65;;;20.13;;
57395;SDS011;43222;52.912;6.940;2023-04-06T11:16:45;25.73;;;19.85;;
57395;SDS011;43222;52.912;6.940;2023-04-06T11:19:12;25.20;;;20.90;;
57395;SDS011;43222;52.912;6.940;2023-04-06T11:21:39;28.60;;;19.85;;
57395;SDS011;43222;52.912;6.940;2023-04-06T11:26:47;27.65;;;20.67;;
57395;SDS011;43222;52.912;6.940;2023-04-06T11:29:22;27.42;;;20.70;;
57395;SDS011;43222;52.912;6.940;2023-04-06T11:31:50;28.92;;;21.42;;
57395;SDS011;43222;52.912;6.940;2023-04-06T11:34:20;26.38;;;21.30;;
57395;SDS011;43222;52.912;6.940;2023-04-06T11:36:47;28.38;;;20.33;;
57395;SDS011;43222;52.912;6.940;2023-04-06T11:39:13;27.50;;;20.75;;
57395;SDS011;43222;52.912;6.940;2023-04-06T11:41:47;27.58;;;20.05;;
57395;SDS011;43222;52.912;6.940;2023-04-06T11:44:13;25.67;;;20.38;;
57395;SDS011;43222;52.912;6.940;2023-04-06T11:46:39;25.58;;;19.58;;
57395;SDS011;43222;52.912;6.940;2023-04-06T11:49:05;28.02;;;20.35;;
57395;SDS011;43222;52.912;6.940;2023-04-06T11:51:35;26.60;;;20.70;;
57395;SDS011;43222;52.912;6.940;2023-04-06T11:54:01;26.75;;;20.73;;
57395;SDS011;43222;52.912;6.940;2023-04-06T11:56:28;27.90;;;21.75;;
57395;SDS011;43222;52.912;6.940;2023-04-06T11:58:58;25.25;;;20.52;;
57395;SDS011;43222;52.912;6.940;2023-04-06T12:01:28;24.70;;;20.52;;
57395;SDS011;43222;52.912;6.940;2023-04-06T12:03:54;24.30;;;20.33;;
57395;SDS011;43222;52.912;6.940;2023-04-06T12:06:20;25.00;;;20.15;;
57395;SDS011;43222;52.912;6.940;2023-04-06T12:08:46;28.02;;;20.35;;
57395;SDS011;43222;52.912;6.940;2023-04-06T12:11:12;26.08;;;20.58;;
57395;SDS011;43222;52.912;6.940;2023-04-06T12:13:38;24.35;;;20.67;;
57395;SDS011;43222;52.912;6.940;2023-04-06T12:16:04;31.23;;;21.40;;
57395;SDS011;43222;52.912;6.940;2023-04-06T12:18:31;25.38;;;21.17;;
57395;SDS011;43222;52.912;6.940;2023-04-06T12:20:57;25.23;;;20.80;;
57395;SDS011;43222;52.912;6.940;2023-04-06T12:23:23;25.38;;;21.33;;
57395;SDS011;43222;52.912;6.940;2023-04-06T12:25:49;35.30;;;21.88;;
57395;SDS011;43222;52.912;6.940;2023-04-06T12:28:15;25.35;;;20.90;;
57395;SDS011;43222;52.912;6.940;2023-04-06T12:30:41;27.98;;;21.85;;
57395;SDS011;43222;52.912;6.940;2023-04-06T12:33:07;27.35;;;22.23;;
57395;SDS011;43222;52.912;6.940;2023-04-06T12:35:33;28.15;;;22.33;;
57395;SDS011;43222;52.912;6.940;2023-04-06T12:38:00;27.17;;;21.23;;
57395;SDS011;43222;52.912;6.940;2023-04-06T12:40:26;25.02;;;21.42;;
57395;SDS011;43222;52.912;6.940;2023-04-06T12:42:52;26.75;;;21.67;;
57395;SDS011;43222;52.912;6.940;2023-04-06T12:45:18;25.33;;;21.25;;
57395;SDS011;43222;52.912;6.940;2023-04-06T12:47:44;27.48;;;21.77;;
57395;SDS011;43222;52.912;6.940;2023-04-06T12:50:10;29.08;;;21.95;;
57395;SDS011;43222;52.912;6.940;2023-04-06T12:52:36;27.73;;;22.92;;
57395;SDS011;43222;52.912;6.940;2023-04-06T12:55:03;28.15;;;23.35;;
57395;SDS011;43222;52.912;6.940;2023-04-06T12:57:30;27.48;;;22.02;;
57395;SDS011;43222;52.912;6.940;2023-04-06T12:59:56;28.20;;;22.75;;
57395;SDS011;43222;52.912;6.940;2023-04-06T13:02:23;29.50;;;22.45;;
57395;SDS011;43222;52.912;6.940;2023-04-06T13:04:49;29.48;;;22.95;;
57395;SDS011;43222;52.912;6.940;2023-04-06T13:07:16;30.55;;;22.55;;
57395;SDS011;43222;52.912;6.940;2023-04-06T13:09:42;29.45;;;23.05;;
57395;SDS011;43222;52.912;6.940;2023-04-06T13:12:08;26.92;;;22.77;;
57395;SDS011;43222;52.912;6.940;2023-04-06T13:14:34;27.30;;;21.67;;
57395;SDS011;43222;52.912;6.940;2023-04-06T13:17:00;30.23;;;23.58;;
57395;SDS011;43222;52.912;6.940;2023-04-06T13:19:26;28.48;;;22.65;;
57395;SDS011;43222;52.912;6.940;2023-04-06T13:21:56;28.55;;;22.90;;
57395;SDS011;43222;52.912;6.940;2023-04-06T13:24:22;29.45;;;22.52;;
57395;SDS011;43222;52.912;6.940;2023-04-06T13:26:48;26.77;;;22.08;;
57395;SDS011;43222;52.912;6.940;2023-04-06T13:29:15;30.48;;;21.65;;
57395;SDS011;43222;52.912;6.940;2023-04-06T13:31:41;32.72;;;22.27;;
57395;SDS011;43222;52.912;6.940;2023-04-06T13:34:07;30.58;;;22.55;;
57395;SDS011;43222;52.912;6.940;2023-04-06T13:36:33;29.05;;;23.05;;
57395;SDS011;43222;52.912;6.940;2023-04-06T13:38:59;30.48;;;23.92;;
57395;SDS011;43222;52.912;6.940;2023-04-06T13:41:25;31.45;;;22.88;;
57395;SDS011;43222;52.912;6.940;2023-04-06T13:43:52;27.23;;;21.33;;
57395;SDS011;43222;52.912;6.940;2023-04-06T13:46:18;27.65;;;22.50;;
57395;SDS011;43222;52.912;6.940;2023-04-06T13:48:44;28.02;;;22.35;;
57395;SDS011;43222;52.912;6.940;2023-04-06T13:51:12;28.77;;;21.88;;
57395;SDS011;43222;52.912;6.940;2023-04-06T13:53:38;29.48;;;22.33;;
57395;SDS011;43222;52.912;6.940;2023-04-06T13:56:05;28.80;;;22.75;;
57395;SDS011;43222;52.912;6.940;2023-04-06T13:58:31;27.50;;;22.80;;
57395;SDS011;43222;52.912;6.940;2023-04-06T14:01:04;24.95;;;21.42;;
57395;SDS011;43222;52.912;6.940;2023-04-06T14:03:31;29.20;;;22.67;;
57395;SDS011;43222;52.912;6.940;2023-04-06T14:05:57;27.85;;;23.33;;
57395;SDS011;43222;52.912;6.940;2023-04-06T14:08:23;29.63;;;23.10;;
57395;SDS011;43222;52.912;6.940;2023-04-06T14:10:49;27.17;;;22.48;;
57395;SDS011;43222;52.912;6.940;2023-04-06T14:13:15;29.98;;;22.88;;
57395;SDS011;43222;52.912;6.940;2023-04-06T14:15:42;28.10;;;22.55;;
57395;SDS011;43222;52.912;6.940;2023-04-06T14:18:08;28.88;;;22.10;;
57395;SDS011;43222;52.912;6.940;2023-04-06T14:20:34;32.00;;;22.77;;
57395;SDS011;43222;52.912;6.940;2023-04-06T14:23:01;27.20;;;22.25;;
57395;SDS011;43222;52.912;6.940;2023-04-06T14:25:27;27.00;;;22.17;;
57395;SDS011;43222;52.912;6.940;2023-04-06T14:27:56;30.00;;;23.10;;
57395;SDS011;43222;52.912;6.940;2023-04-06T14:30:22;27.20;;;22.65;;
57395;SDS011;43222;52.912;6.940;2023-04-06T14:32:48;29.13;;;22.85;;
57395;SDS011;43222;52.912;6.940;2023-04-06T14:35:14;28.00;;;22.45;;
57395;SDS011;43222;52.912;6.940;2023-04-06T14:37:40;28.13;;;20.08;;
57395;SDS011;43222;52.912;6.940;2023-04-06T14:40:06;28.23;;;22.02;;
57395;SDS011;43222;52.912;6.940;2023-04-06T14:42:33;29.85;;;22.05;;
57395;SDS011;43222;52.912;6.940;2023-04-06T14:44:59;25.42;;;20.85;;